createdAt,value
2023-03-27T00:01:45.813Z,101419.13
2023-03-27T00:06:50.966Z,101429.47
2023-03-27T00:11:56.157Z,101452.53
2023-03-27T00:17:00.340Z,101452.41
2023-03-27T00:22:05.646Z,101453.41
2023-03-27T00:27:09.596Z,101459.69
2023-03-27T00:32:13.375Z,101462.00
2023-03-27T00:37:18.519Z,101470.59
2023-03-27T00:42:23.722Z,101481.97
2023-03-27T00:47:32.998Z,101488.09
2023-03-27T00:52:40.837Z,101484.00
2023-03-27T00:57:47.039Z,101487.44
2023-03-27T01:02:52.248Z,101491.78
2023-03-27T01:08:01.089Z,101503.66
2023-03-27T01:13:14.740Z,101503.91
2023-03-27T01:18:36.366Z,101508.44
2023-03-27T01:24:15.625Z,101520.12
2023-03-27T01:29:27.637Z,101515.81
2023-03-27T01:35:04.542Z,101522.91
2023-03-27T01:40:17.557Z,101528.56
2023-03-27T01:45:25.317Z,101533.69
2023-03-27T01:50:34.613Z,101544.47
2023-03-27T01:55:45.214Z,101531.72
2023-03-27T02:00:54.082Z,101535.84
2023-03-27T02:06:01.838Z,101553.78
2023-03-27T02:11:07.867Z,101560.97
2023-03-27T02:16:18.845Z,101567.91
2023-03-27T02:21:23.563Z,101582.37
2023-03-27T02:26:29.181Z,101581.22
2023-03-27T02:31:45.312Z,101600.44
2023-03-27T02:36:55.206Z,101602.00
2023-03-27T02:42:08.205Z,101602.00
2023-03-27T02:47:16.464Z,101608.91
2023-03-27T02:52:26.113Z,101612.47
2023-03-27T02:57:34.099Z,101611.06
2023-03-27T03:02:41.309Z,101616.31
2023-03-27T03:07:46.151Z,101625.12
2023-03-27T03:12:51.453Z,101638.06
2023-03-27T03:17:55.232Z,101639.84
2023-03-27T03:22:58.934Z,101644.72
2023-03-27T03:28:08.109Z,101655.09
2023-03-27T03:33:14.158Z,101667.63
2023-03-27T03:38:24.978Z,101669.06
2023-03-27T03:43:32.360Z,101681.97
2023-03-27T03:48:36.359Z,101689.53
2023-03-27T03:53:40.051Z,101695.53
2023-03-27T03:58:45.067Z,101692.97
2023-03-27T04:03:49.503Z,101702.09
2023-03-27T04:08:53.871Z,101707.19
2023-03-27T04:14:02.280Z,101711.16
2023-03-27T04:19:07.234Z,101720.88
2023-03-27T04:24:14.049Z,101729.69
2023-03-27T04:29:22.426Z,101746.97
2023-03-27T04:34:30.202Z,101755.22
2023-03-27T04:39:42.680Z,101762.78
2023-03-27T04:44:47.999Z,101773.50
2023-03-27T04:49:51.878Z,101779.25
2023-03-27T04:54:56.120Z,101789.09
2023-03-27T05:00:14.490Z,101786.53
2023-03-27T05:05:24.976Z,101783.25
2023-03-27T05:10:29.058Z,101777.50
2023-03-27T05:15:35.026Z,101793.25
2023-03-27T05:20:39.519Z,101798.53
2023-03-27T05:25:59.258Z,101810.41
2023-03-27T05:31:11.028Z,101813.88
2023-03-27T05:36:16.407Z,101819.22
2023-03-27T05:41:20.192Z,101829.81
2023-03-27T05:46:25.781Z,101841.69
2023-03-27T05:51:31.545Z,101838.91
2023-03-27T05:56:35.865Z,101855.97
2023-03-27T06:01:41.328Z,101888.38
2023-03-27T06:06:46.532Z,101907.72
2023-03-27T06:11:50.283Z,101895.97
2023-03-27T06:16:58.080Z,101908.22
2023-03-27T06:22:05.577Z,101895.56
2023-03-27T06:27:10.979Z,101911.47
2023-03-27T06:32:17.651Z,101913.81
2023-03-27T06:37:24.978Z,101926.47
2023-03-27T06:42:29.790Z,101936.72
2023-03-27T06:47:44.431Z,101932.44
2023-03-27T06:52:56.369Z,101939.75
2023-03-27T06:58:04.104Z,101937.12
2023-03-27T07:03:11.846Z,101948.09
2023-03-27T07:08:24.465Z,101944.44
2023-03-27T07:13:29.668Z,101941.03
2023-03-27T07:18:36.678Z,101953.13
2023-03-27T07:23:40.909Z,101957.91
2023-03-27T07:28:46.108Z,101968.47
2023-03-27T07:33:52.120Z,101968.50
2023-03-27T07:38:58.778Z,101973.00
2023-03-27T07:44:04.648Z,101977.16
2023-03-27T07:49:11.184Z,101975.91
2023-03-27T07:54:17.010Z,101978.38
2023-03-27T07:59:22.592Z,101994.00
2023-03-27T08:04:28.478Z,101993.78
2023-03-27T08:09:33.602Z,101999.63
2023-03-27T08:14:37.771Z,102004.38
2023-03-27T08:19:47.038Z,102002.03
2023-03-27T08:24:51.210Z,102010.25
2023-03-27T08:29:58.323Z,102017.72
2023-03-27T08:35:03.786Z,102012.03
2023-03-27T08:40:13.966Z,102009.91
2023-03-27T08:45:24.032Z,102026.13
2023-03-27T08:50:39.463Z,102041.28
2023-03-27T08:55:45.114Z,102043.31
2023-03-27T09:00:58.540Z,102058.34
2023-03-27T09:06:08.625Z,102073.41
2023-03-27T09:11:22.278Z,102081.41
2023-03-27T09:16:31.506Z,102078.72
2023-03-27T09:21:43.577Z,102080.75
2023-03-27T09:26:55.144Z,102086.12
2023-03-27T09:32:13.929Z,102092.06
2023-03-27T09:37:19.008Z,102087.91
2023-03-27T09:42:27.557Z,102088.16
2023-03-27T09:47:35.535Z,102100.44
2023-03-27T09:52:43.322Z,102135.19
2023-03-27T09:57:49.553Z,102148.16
2023-03-27T10:03:01.666Z,102128.44
2023-03-27T10:08:31.237Z,102129.59
2023-03-27T10:13:46.319Z,102131.00
2023-03-27T10:18:55.693Z,102119.00
2023-03-27T10:24:04.134Z,102109.00
2023-03-27T10:29:25.920Z,102109.69
2023-03-27T10:34:36.568Z,102107.94
2023-03-27T10:39:48.676Z,102118.31
2023-03-27T10:44:57.559Z,102146.97
2023-03-27T10:50:09.321Z,102135.97
2023-03-27T10:55:27.292Z,102134.19
2023-03-27T11:00:36.165Z,102137.44
2023-03-27T11:05:44.184Z,102137.94
2023-03-27T11:10:52.031Z,102140.41
2023-03-27T11:16:02.087Z,102143.03
2023-03-27T11:21:16.202Z,102159.16
2023-03-27T11:26:25.220Z,102156.84
2023-03-27T11:31:39.104Z,102161.50
2023-03-27T11:36:51.873Z,102164.38
2023-03-27T11:42:01.432Z,102168.56
2023-03-27T11:47:24.963Z,102181.34
2023-03-27T11:52:42.065Z,102199.72
2023-03-27T11:58:01.025Z,102199.69
2023-03-27T12:03:23.633Z,102196.75
2023-03-27T12:08:36.560Z,102195.59
2023-03-27T12:14:17.648Z,102183.50
2023-03-27T12:19:39.177Z,102179.03
2023-03-27T12:24:59.010Z,102184.56
2023-03-27T12:30:25.181Z,102192.28
2023-03-27T12:35:32.795Z,102201.34
2023-03-27T12:40:41.870Z,102192.09
2023-03-27T12:46:08.745Z,102202.25
2023-03-27T12:51:15.383Z,102203.81
2023-03-27T12:56:32.143Z,102199.47
2023-03-27T13:01:59.509Z,102202.31
2023-03-27T13:07:13.861Z,102210.16
2023-03-27T13:12:37.905Z,102207.81
2023-03-27T13:18:01.852Z,102206.44
2023-03-27T13:23:22.891Z,102217.09
2023-03-27T13:28:32.548Z,102226.03
2023-03-27T13:33:46.500Z,102220.13
2023-03-27T13:39:21.000Z,102210.81
2023-03-27T13:44:35.504Z,102223.28
2023-03-27T13:49:59.167Z,102211.69
2023-03-27T13:55:28.881Z,102229.38
2023-03-27T14:00:59.668Z,102222.94
2023-03-27T14:06:23.164Z,102237.25
2023-03-27T14:11:51.528Z,102236.97
2023-03-27T14:17:41.892Z,102237.37
2023-03-27T14:22:54.134Z,102238.47
2023-03-27T14:28:01.322Z,102232.28
2023-03-27T14:33:10.865Z,102252.28
2023-03-27T14:38:23.297Z,102242.25
2023-03-27T14:43:28.864Z,102256.09
2023-03-27T14:48:37.219Z,102259.47
2023-03-27T14:53:47.003Z,102262.22
2023-03-27T14:58:57.012Z,102274.25
2023-03-27T15:04:03.552Z,102288.09
2023-03-27T15:09:15.612Z,102287.84
2023-03-27T15:14:28.112Z,102295.81
2023-03-27T15:19:48.935Z,102289.81
2023-03-27T15:24:59.835Z,102303.44
2023-03-27T15:30:08.934Z,102302.59
2023-03-27T15:35:17.988Z,102308.88
2023-03-27T15:40:36.559Z,102307.09
2023-03-27T15:45:42.268Z,102316.47
2023-03-27T15:50:56.577Z,102317.34
2023-03-27T15:56:03.218Z,102325.78
2023-03-27T16:01:19.002Z,102321.44
2023-03-27T16:06:27.615Z,102326.22
2023-03-27T16:11:41.597Z,102343.03
2023-03-27T16:16:45.393Z,102344.41
2023-03-27T16:21:56.590Z,102345.53
2023-03-27T16:27:02.012Z,102343.44
2023-03-27T16:32:06.685Z,102348.31
2023-03-27T16:37:10.811Z,102345.31
2023-03-27T16:42:18.370Z,102348.87
2023-03-27T16:47:23.340Z,102360.44
2023-03-27T16:52:27.310Z,102365.41
2023-03-27T16:57:32.382Z,102362.00
2023-03-27T17:02:36.815Z,102374.94
2023-03-27T17:07:41.848Z,102378.87
2023-03-27T17:12:47.121Z,102392.41
2023-03-27T17:17:52.173Z,102393.81
2023-03-27T17:22:55.878Z,102397.28
2023-03-27T17:28:00.956Z,102396.72
2023-03-27T17:33:05.310Z,102405.59
2023-03-27T17:38:10.327Z,102403.34
2023-03-27T17:43:15.816Z,102411.31
2023-03-27T17:48:19.775Z,102406.25
2023-03-27T17:53:23.453Z,102414.19
2023-03-27T17:58:28.608Z,102423.41
2023-03-27T18:03:32.442Z,102434.75
2023-03-27T18:08:37.005Z,102441.31
2023-03-27T18:13:42.769Z,102458.62
2023-03-27T18:18:47.431Z,102456.78
2023-03-27T18:23:53.410Z,102463.94
2023-03-27T18:28:58.998Z,102468.06
2023-03-27T18:34:02.723Z,102467.53
2023-03-27T18:39:07.365Z,102478.16
2023-03-27T18:44:13.464Z,102475.88
2023-03-27T18:49:24.251Z,102474.22
2023-03-27T18:54:29.213Z,102480.87
2023-03-27T18:59:34.335Z,102482.06
2023-03-27T19:04:38.040Z,102484.78
2023-03-27T19:09:42.021Z,102490.69
2023-03-27T19:14:47.151Z,102501.63
2023-03-27T19:19:54.170Z,102508.97
2023-03-27T19:24:58.082Z,102504.44
2023-03-27T19:30:03.220Z,102500.47
2023-03-27T19:35:08.627Z,102501.34
2023-03-27T19:40:13.496Z,102505.03
2023-03-27T19:45:18.858Z,102504.47
2023-03-27T19:50:23.730Z,102511.94
2023-03-27T19:55:27.659Z,102498.91
2023-03-27T20:00:33.134Z,102506.34
2023-03-27T20:05:39.385Z,102502.97
2023-03-27T20:10:44.894Z,102503.34
2023-03-27T20:15:51.803Z,102504.19
2023-03-27T20:20:56.054Z,102503.78
2023-03-27T20:26:01.026Z,102505.00
2023-03-27T20:31:07.384Z,102506.28
2023-03-27T20:36:11.251Z,102519.13
2023-03-27T20:41:15.863Z,102515.34
2023-03-27T20:46:21.130Z,102517.91
2023-03-27T20:51:25.184Z,102522.78
2023-03-27T20:56:29.252Z,102525.41
2023-03-27T21:01:34.357Z,102530.56
2023-03-27T21:06:38.297Z,102538.63
2023-03-27T21:11:42.031Z,102542.44
2023-03-27T21:16:47.230Z,102540.97
2023-03-27T21:21:51.046Z,102541.34
2023-03-27T21:26:54.820Z,102546.22
2023-03-27T21:31:59.921Z,102540.03
2023-03-27T21:37:03.671Z,102542.66
2023-03-27T21:42:07.482Z,102542.22
2023-03-27T21:47:12.590Z,102541.59
2023-03-27T21:52:16.272Z,102545.84
2023-03-27T21:57:20.096Z,102555.94
2023-03-27T22:02:25.274Z,102551.28
2023-03-27T22:07:28.960Z,102548.13
2023-03-27T22:12:32.661Z,102554.94
2023-03-27T22:17:38.506Z,102558.59
2023-03-27T22:22:42.572Z,102551.34
2023-03-27T22:27:47.448Z,102550.34
2023-03-27T22:32:52.565Z,102559.69
2023-03-27T22:37:56.337Z,102562.37
2023-03-27T22:43:00.000Z,102571.72
2023-03-27T22:48:06.028Z,102563.59
2023-03-27T22:53:09.792Z,102576.06
2023-03-27T22:58:13.532Z,102577.12
2023-03-27T23:03:19.507Z,102574.41
2023-03-27T23:08:24.979Z,102574.12
2023-03-27T23:13:31.496Z,102567.03
2023-03-27T23:18:36.680Z,102571.84
2023-03-27T23:23:41.586Z,102578.63
2023-03-27T23:28:45.322Z,102583.09
2023-03-27T23:33:51.779Z,102583.22
2023-03-27T23:38:56.576Z,102587.88
2023-03-27T23:44:00.796Z,102591.47
2023-03-27T23:49:05.915Z,102584.53
2023-03-27T23:54:09.599Z,102592.78
2023-03-27T23:59:13.478Z,102601.41
